Amethyst — SYHQ — position and weather

sailwx.info

Track history (hours):
 
Tides and Currents Weather Stations Pressure Air Temp Water Temp Dewpoint Dewpoint Depression Visibility Wind Speed Wind Dir Waves Ship Positions

Amethyst

Last reported at 2017-Sep-21 13:09 UTC. Time now 2017-Sep-23 04:13 UTC.
Position N 36°01' E 031°53'.

Length 112 m; draft 5.1 m.

Type: Cargo ship. MMSI: 240630000.

Date/timePositionNaut miles runAvg speedWind from/ knotsBaromVisibWave heightAir tempDewpointWater temp
2017-Sep-21 13:09N 36°01' E 031°53'210.2
2017-Sep-21 12:55N 36°02' E 031°50'610.0
2017-Sep-21 12:20N 36°02' E 031°43'510.1
2017-Sep-21 11:50N 36°02' E 031°36'410.0
2017-Sep-21 11:28N 36°03' E 031°32'510.2
2017-Sep-21 11:00N 36°03' E 031°26'510.1
2017-Sep-21 10:30N 36°03' E 031°20'610.1
2017-Sep-21 09:57N 36°03' E 031°13'510.1
2017-Sep-21 09:29N 36°04' E 031°07'510.1
2017-Sep-21 08:59N 36°04' E 031°01'510.1
2017-Sep-21 08:30N 36°05' E 030°55'510.0
2017-Sep-21 08:00N 36°05' E 030°49'510.1
2017-Sep-21 07:30N 36°06' E 030°43'510.3
2017-Sep-21 07:00N 36°06' E 030°36'510.4
2017-Sep-21 06:30N 36°06' E 030°30'235 9.8
2017-Sep-20 06:34N 37°10' E 025°48'1 9.5
2017-Sep-20 06:30N 37°10' E 025°47'5 9.4
2017-Sep-20 06:00N 37°11' E 025°41'7 9.9
2017-Sep-20 05:20N 37°13' E 025°33'310.2
2017-Sep-20 05:00N 37°14' E 025°29'510.3
2017-Sep-20 04:30N 37°15' E 025°23'5 9.9
2017-Sep-20 04:00N 37°16' E 025°17'510.1
2017-Sep-20 03:30N 37°17' E 025°11'510.1
2017-Sep-20 03:00N 37°18' E 025°05'510.0
2017-Sep-20 02:30N 37°20' E 024°58'510.0
2017-Sep-20 02:00N 37°21' E 024°52'510.1
2017-Sep-20 01:30N 37°23' E 024°47'27 9.9
2017-Sep-19 22:48N 37°31' E 024°14'410.1
2017-Sep-19 22:27N 37°32' E 024°10'610.1
2017-Sep-19 21:54N 37°34' E 024°04'410.2
2017-Sep-19 21:30N 37°35' E 023°59'610.2
2017-Sep-19 20:54N 37°37' E 023°51'410.2
2017-Sep-19 20:30N 37°38' E 023°47'5 9.7
2017-Sep-19 20:00N 37°41' E 023°42'510.1
2017-Sep-19 19:30N 37°46' E 023°39'5 9.9
2017-Sep-19 19:00N 37°50' E 023°37'510.0
2017-Sep-19 18:30N 37°55' E 023°36'2 3.1
2017-Sep-19 18:00N 37°57' E 023°37'0 0.0
2017-Sep-19 17:30N 37°57' E 023°37'0 0.0
2017-Sep-19 17:00N 37°57' E 023°37'0 0.0
2017-Sep-19 16:27N 37°57' E 023°37'0 0.0
2017-Sep-19 16:00N 37°57' E 023°37'0 0.0
2017-Sep-19 15:27N 37°57' E 023°37'0 0.0
2017-Sep-19 15:00N 37°57' E 023°37'0 0.0
2017-Sep-19 14:30N 37°57' E 023°37'0 0.0
2017-Sep-19 14:00N 37°57' E 023°37'0 0.0
2017-Sep-19 13:30N 37°57' E 023°37'0 0.0
2017-Sep-19 13:00N 37°57' E 023°37'0 0.0
2017-Sep-19 12:30N 37°57' E 023°37'0 0.0
2017-Sep-19 12:00N 37°57' E 023°37'0 0.0
2017-Sep-19 11:30N 37°57' E 023°37'0 0.0
2017-Sep-19 11:00N 37°57' E 023°37'0 0.0
2017-Sep-19 10:30N 37°57' E 023°37'0 0.0
2017-Sep-19 10:00N 37°57' E 023°37'0 0.0
2017-Sep-19 09:28N 37°57' E 023°37'0 0.0
2017-Sep-19 08:58N 37°57' E 023°37'0 0.0
2017-Sep-19 08:28N 37°57' E 023°37'0 0.0
2017-Sep-19 07:58N 37°57' E 023°37'0 0.0
2017-Sep-19 07:28N 37°57' E 023°37'0 0.0
2017-Sep-19 06:58N 37°57' E 023°37'0 0.0
2017-Sep-19 06:28N 37°57' E 023°37'0 0.0
2017-Sep-19 05:58N 37°57' E 023°37'0 0.0
2017-Sep-19 05:28N 37°57' E 023°37'0 0.0
2017-Sep-19 04:58N 37°57' E 023°37'0 0.0
2017-Sep-19 04:28N 37°57' E 023°37'0 0.0
2017-Sep-19 03:58N 37°57' E 023°37'0 0.0
2017-Sep-19 03:28N 37°57' E 023°37'0 0.0
2017-Sep-19 02:58N 37°57' E 023°37'0 0.0
2017-Sep-19 02:28N 37°57' E 023°37'0 0.0
2017-Sep-19 01:58N 37°57' E 023°37'0 0.0
2017-Sep-19 01:28N 37°57' E 023°37'0 0.0
2017-Sep-19 00:58N 37°57' E 023°37'0 0.0
2017-Sep-19 00:25N 37°57' E 023°37'0 0.0
2017-Sep-18 23:58N 37°57' E 023°37'0 0.0
2017-Sep-18 23:28N 37°57' E 023°37'0 0.0
2017-Sep-18 22:58N 37°57' E 023°37'0 0.0
2017-Sep-18 22:28N 37°57' E 023°37'0 0.0
2017-Sep-18 21:58N 37°57' E 023°37'0 0.0
2017-Sep-18 21:28N 37°57' E 023°37'0 0.0
2017-Sep-18 20:58N 37°57' E 023°37'0 0.0
2017-Sep-18 20:28N 37°57' E 023°37'0 0.0
2017-Sep-18 19:58N 37°57' E 023°37'0 0.0
2017-Sep-18 19:28N 37°57' E 023°37'0 0.0
2017-Sep-18 18:58N 37°57' E 023°37'0 0.0
2017-Sep-18 18:28N 37°57' E 023°37'0 0.0
2017-Sep-18 17:58N 37°57' E 023°37'0 0.0
2017-Sep-18 17:28N 37°57' E 023°37'0 0.0
2017-Sep-18 16:58N 37°57' E 023°37'0 0.0
2017-Sep-18 16:28N 37°57' E 023°37'0 0.0
2017-Sep-18 15:58N 37°57' E 023°37'0 0.0
2017-Sep-18 15:25N 37°57' E 023°37'0 0.0
2017-Sep-18 14:58N 37°57' E 023°37'0 0.0
2017-Sep-18 14:28N 37°57' E 023°37'0 0.0
2017-Sep-18 13:58N 37°57' E 023°37'0 0.0
2017-Sep-18 13:25N 37°57' E 023°37'0 0.0
2017-Sep-18 12:58N 37°57' E 023°37'0 0.0
2017-Sep-18 12:28N 37°57' E 023°37'0 0.0
2017-Sep-18 11:58N 37°57' E 023°37'0 0.0
2017-Sep-18 11:28N 37°57' E 023°37'0 0.0
2017-Sep-18 10:58N 37°57' E 023°37'0 0.0
2017-Sep-18 10:28N 37°57' E 023°37'0 0.0
2017-Sep-18 09:58N 37°57' E 023°37'0 0.0
2017-Sep-18 09:28N 37°57' E 023°37'0 0.0
2017-Sep-18 08:58N 37°57' E 023°37'0 0.0
2017-Sep-18 08:28N 37°57' E 023°37'0 0.0
2017-Sep-18 07:58N 37°57' E 023°37'0 0.0
2017-Sep-18 07:28N 37°57' E 023°37'0 0.0
2017-Sep-18 06:58N 37°57' E 023°37'0 0.0
2017-Sep-18 06:28N 37°57' E 023°37'0 0.0
2017-Sep-18 05:58N 37°57' E 023°37'0 0.0
2017-Sep-18 05:28N 37°57' E 023°37'0 0.0
2017-Sep-18 04:58N 37°57' E 023°37'0 0.0
2017-Sep-18 04:28N 37°57' E 023°37'0 0.0
2017-Sep-18 03:58N 37°57' E 023°37'0 0.0
2017-Sep-18 03:28N 37°57' E 023°37'0 0.0
2017-Sep-18 02:58N 37°57' E 023°37'0 0.0
2017-Sep-18 02:28N 37°57' E 023°37'0 0.0
2017-Sep-18 01:58N 37°57' E 023°37'0 0.0
2017-Sep-18 01:28N 37°57' E 023°37'0 0.0
2017-Sep-18 00:58N 37°57' E 023°37'0 0.0
2017-Sep-18 00:28N 37°57' E 023°37'0 0.0
2017-Sep-17 23:58N 37°57' E 023°37'0 0.0
2017-Sep-17 23:28N 37°57' E 023°37'0 0.0
2017-Sep-17 22:58N 37°57' E 023°37'0 0.0
2017-Sep-17 22:28N 37°57' E 023°37'0 0.0
2017-Sep-17 21:59N 37°57' E 023°37'0 0.0
2017-Sep-17 21:29N 37°57' E 023°37'0 0.0
2017-Sep-17 20:59N 37°57' E 023°37'0 0.0
2017-Sep-17 20:29N 37°57' E 023°37'0 0.0
2017-Sep-17 19:59N 37°57' E 023°37'0 0.0
2017-Sep-17 19:29N 37°57' E 023°37'0 0.0
2017-Sep-17 18:59N 37°57' E 023°37'0 0.0
2017-Sep-17 18:29N 37°57' E 023°37'0 0.0
2017-Sep-17 17:59N 37°57' E 023°37'0 0.0
2017-Sep-17 17:29N 37°57' E 023°37'0 0.0
2017-Sep-17 16:59N 37°57' E 023°37'0 0.0
2017-Sep-17 16:29N 37°57' E 023°37'0 0.0
2017-Sep-17 15:59N 37°57' E 023°37'0 0.0
2017-Sep-17 15:29N 37°57' E 023°37'0 0.0
2017-Sep-17 14:59N 37°57' E 023°37'0 0.0
2017-Sep-17 14:29N 37°57' E 023°37'0 0.0
2017-Sep-17 13:59N 37°57' E 023°37'0 0.0
2017-Sep-17 13:29N 37°57' E 023°37'0 0.0
2017-Sep-17 12:59N 37°57' E 023°37'0 0.0
2017-Sep-17 12:29N 37°57' E 023°37'0 0.0
2017-Sep-17 11:59N 37°57' E 023°37'0 0.0
2017-Sep-17 11:29N 37°57' E 023°37'0 0.0
2017-Sep-17 10:59N 37°57' E 023°37'0 0.0
2017-Sep-17 10:29N 37°57' E 023°37'0 0.0
2017-Sep-17 09:59N 37°57' E 023°37'0 0.0
2017-Sep-17 09:29N 37°57' E 023°37'0 0.0
2017-Sep-17 08:59N 37°57' E 023°37'0 0.0
2017-Sep-17 08:29N 37°57' E 023°37'0 0.0
2017-Sep-17 07:56N 37°57' E 023°37'0 0.0
2017-Sep-17 07:29N 37°57' E 023°37'0 0.0
2017-Sep-17 06:59N 37°57' E 023°37'0 0.0
2017-Sep-17 06:29N 37°57' E 023°37'0 0.0
2017-Sep-17 05:59N 37°57' E 023°37'0 0.0
2017-Sep-17 05:29N 37°57' E 023°37'0 0.0
2017-Sep-17 04:59N 37°57' E 023°37'0 0.0
2017-Sep-17 04:29N 37°57' E 023°37'0 0.0
2017-Sep-17 03:59N 37°57' E 023°37'0 0.0
2017-Sep-17 03:29N 37°57' E 023°37'0 0.0
2017-Sep-17 02:59N 37°57' E 023°37'0 0.0
2017-Sep-17 02:29N 37°57' E 023°37'0 0.0
2017-Sep-17 01:59N 37°57' E 023°37'0 0.0
2017-Sep-17 01:29N 37°57' E 023°37'0 0.0
2017-Sep-17 00:59N 37°57' E 023°37'0 0.0
2017-Sep-17 00:29N 37°57' E 023°37'0 0.0
2017-Sep-16 23:59N 37°57' E 023°37'0 0.0
2017-Sep-16 23:26N 37°57' E 023°37'0 0.0
2017-Sep-16 22:59N 37°57' E 023°37'0 0.0
2017-Sep-16 22:29N 37°57' E 023°37'0 0.0
2017-Sep-16 21:59N 37°57' E 023°37'0 0.0
2017-Sep-16 21:29N 37°57' E 023°37'0 0.0
2017-Sep-16 20:59N 37°57' E 023°37'0 0.0
2017-Sep-16 20:29N 37°57' E 023°37'0 0.0
2017-Sep-16 19:59N 37°57' E 023°37'0 0.0
2017-Sep-16 19:29N 37°57' E 023°37'0 0.0
2017-Sep-16 18:59N 37°57' E 023°37'0 0.0
2017-Sep-16 18:29N 37°57' E 023°37'0 0.0
2017-Sep-16 17:59N 37°57' E 023°37'0 0.0
2017-Sep-16 17:29N 37°57' E 023°37'0 0.0
2017-Sep-16 16:59N 37°57' E 023°37'0 0.0
2017-Sep-16 16:29N 37°57' E 023°37'0 0.0
2017-Sep-16 15:59N 37°57' E 023°37'0 0.0
2017-Sep-16 15:29N 37°57' E 023°37'0 0.0
2017-Sep-16 14:59N 37°57' E 023°37'0 0.0
2017-Sep-16 14:29N 37°57' E 023°37'0 0.0
2017-Sep-16 13:59N 37°57' E 023°37'0 0.0
2017-Sep-16 13:29N 37°57' E 023°37'0 0.0
2017-Sep-16 12:59N 37°57' E 023°37'0 0.0
2017-Sep-16 12:29N 37°57' E 023°37'0 0.0
2017-Sep-16 11:59N 37°57' E 023°37'0 0.0
2017-Sep-16 11:29N 37°57' E 023°37'0 0.0
2017-Sep-16 10:59N 37°57' E 023°37'0 0.0
2017-Sep-16 10:29N 37°57' E 023°37'0 0.0
2017-Sep-16 09:59N 37°57' E 023°37'0 0.0
2017-Sep-16 09:29N 37°57' E 023°37'0 0.0
2017-Sep-16 08:59N 37°57' E 023°37'0 0.0
2017-Sep-16 08:29N 37°57' E 023°37'0 0.0
2017-Sep-16 07:59N 37°57' E 023°37'0 0.0
2017-Sep-16 07:29N 37°57' E 023°37'0 0.0
2017-Sep-16 06:59N 37°57' E 023°37'0 0.0
2017-Sep-16 06:29N 37°57' E 023°37'0 0.0
2017-Sep-16 05:56N 37°57' E 023°37'0 0.0
2017-Sep-16 05:26N 37°57' E 023°37'0 0.0
2017-Sep-16 04:59N 37°57' E 023°37'0 0.0
2017-Sep-16 04:29N 37°57' E 023°37'0 0.0
2017-Sep-16 03:53N 37°57' E 023°37'0 0.0
2017-Sep-16 03:29N 37°57' E 023°37'0 0.0
2017-Sep-16 02:59N 37°57' E 023°37'0 0.0
2017-Sep-16 02:29N 37°57' E 023°37'0 0.0
2017-Sep-16 01:59N 37°57' E 023°37'0 0.0
2017-Sep-16 01:29N 37°57' E 023°37'0 0.0
2017-Sep-16 00:59N 37°57' E 023°37'0 0.0
2017-Sep-16 00:29N 37°57' E 023°37'0 0.0
2017-Sep-15 23:59N 37°57' E 023°37'0 0.0
2017-Sep-15 23:29N 37°57' E 023°37'0 0.0
2017-Sep-15 22:59N 37°57' E 023°37'0 0.0
2017-Sep-15 22:29N 37°57' E 023°37'0 0.0
2017-Sep-15 21:59N 37°57' E 023°37'0 0.0
2017-Sep-15 21:26N 37°57' E 023°37'0 0.0
2017-Sep-15 20:59N 37°57' E 023°37'0 0.0
2017-Sep-15 20:26N 37°57' E 023°37'0 0.0
2017-Sep-15 19:59N 37°57' E 023°37'0 0.0
2017-Sep-15 19:29N 37°57' E 023°37'0 0.0
2017-Sep-15 18:59N 37°57' E 023°37'0 0.0
2017-Sep-15 18:29N 37°57' E 023°37'0 0.0
2017-Sep-15 17:59N 37°57' E 023°37'0 0.0
2017-Sep-15 17:29N 37°57' E 023°37'0 0.0
2017-Sep-15 16:59N 37°57' E 023°37'0 0.0
2017-Sep-15 16:29N 37°57' E 023°37'0 0.0
2017-Sep-15 15:59N 37°57' E 023°37'0 0.0
2017-Sep-15 15:29N 37°57' E 023°37'0 0.0
2017-Sep-15 14:59N 37°57' E 023°37'0 0.0
2017-Sep-15 14:29N 37°57' E 023°37'0 0.0
2017-Sep-15 13:59N 37°57' E 023°37'0 0.0
2017-Sep-15 13:29N 37°57' E 023°37'0 0.0
2017-Sep-15 12:59N 37°57' E 023°37'0 0.0
2017-Sep-15 12:29N 37°57' E 023°37'0 0.0
2017-Sep-15 11:59N 37°57' E 023°37'0 0.0
2017-Sep-15 11:29N 37°57' E 023°37'0 0.0
2017-Sep-15 10:59N 37°57' E 023°37'0 0.0
2017-Sep-15 10:29N 37°57' E 023°37'0 0.0
2017-Sep-15 09:59N 37°57' E 023°37'0 0.0
2017-Sep-15 09:29N 37°57' E 023°37'0 0.0
2017-Sep-15 08:59N 37°57' E 023°37'0 0.0
2017-Sep-15 08:29N 37°57' E 023°37'0 0.0
2017-Sep-15 07:59N 37°57' E 023°37'0 0.0
2017-Sep-15 07:29N 37°57' E 023°37'0 0.0
2017-Sep-15 06:59N 37°57' E 023°37'0 0.0
2017-Sep-15 06:29N 37°57' E 023°37'0 0.0
2017-Sep-15 05:59N 37°57' E 023°37'0 0.0
2017-Sep-15 05:29N 37°57' E 023°37'1 2.1
2017-Sep-15 05:00N 37°56' E 023°36'1 1.5
2017-Sep-15 04:30N 37°55' E 023°36'1 2.1
2017-Sep-15 04:00N 37°54' E 023°37'5 9.4
2017-Sep-15 03:30N 37°50' E 023°40'511.0
2017-Sep-15 03:00N 37°45' E 023°43'611.0
2017-Sep-15 02:30N 37°40' E 023°46'510.9
2017-Sep-15 02:00N 37°39' E 023°52'611.0
2017-Sep-15 01:28N 37°38' E 023°60'611.0
2017-Sep-15 00:54N 37°38' E 024°08'1011.2
2017-Sep-15 00:00N 37°44' E 024°17'18 0.4
2017-Sep-12 21:34N 37°38' E 023°56'112.3
2017-Sep-12 21:30N 37°38' E 023°55'612.3
2017-Sep-12 21:00N 37°39' E 023°48'611.3
2017-Sep-12 20:30N 37°41' E 023°41'612.2
2017-Sep-12 20:00N 37°47' E 023°38'510.3
2017-Sep-12 19:30N 37°50' E 023°32'612.1
2017-Sep-12 19:01N 37°50' E 023°25'612.2
2017-Sep-12 18:31N 37°51' E 023°17'612.0
2017-Sep-12 18:00N 37°53' E 023°09'611.7
2017-Sep-12 17:30N 37°54' E 023°02'21 6.6
2017-Sep-12 14:21N 38°05' E 022°40'411.9
2017-Sep-12 14:00N 38°07' E 022°36'612.3
2017-Sep-12 13:28N 38°10' E 022°28'  
Track history (hours):
 
Tides and Currents Weather Stations Pressure Air Temp Water Temp Dewpoint Dewpoint Depression Visibility Wind Speed Wind Dir Waves Ship Positions

Amethyst

Last reported at 2017-Sep-21 13:09 UTC. Time now 2017-Sep-23 04:13 UTC.
Position N 36°01' E 031°53'.

Length 112 m; draft 5.1 m.

Type: Cargo ship. MMSI: 240630000.

Date/timePositionNaut miles runAvg speedWind from/ knotsBaromVisibWave heightAir tempDewpointWater temp
2017-Sep-21 13:09N 36°01' E 031°53'210.2
2017-Sep-21 12:55N 36°02' E 031°50'610.0
2017-Sep-21 12:20N 36°02' E 031°43'510.1
2017-Sep-21 11:50N 36°02' E 031°36'410.0
2017-Sep-21 11:28N 36°03' E 031°32'510.2
2017-Sep-21 11:00N 36°03' E 031°26'510.1
2017-Sep-21 10:30N 36°03' E 031°20'610.1
2017-Sep-21 09:57N 36°03' E 031°13'510.1
2017-Sep-21 09:29N 36°04' E 031°07'510.1
2017-Sep-21 08:59N 36°04' E 031°01'510.1
2017-Sep-21 08:30N 36°05' E 030°55'510.0
2017-Sep-21 08:00N 36°05' E 030°49'510.1
2017-Sep-21 07:30N 36°06' E 030°43'510.3
2017-Sep-21 07:00N 36°06' E 030°36'510.4
2017-Sep-21 06:30N 36°06' E 030°30'235 9.8
2017-Sep-20 06:34N 37°10' E 025°48'1 9.5
2017-Sep-20 06:30N 37°10' E 025°47'5 9.4
2017-Sep-20 06:00N 37°11' E 025°41'7 9.9
2017-Sep-20 05:20N 37°13' E 025°33'310.2
2017-Sep-20 05:00N 37°14' E 025°29'510.3
2017-Sep-20 04:30N 37°15' E 025°23'5 9.9
2017-Sep-20 04:00N 37°16' E 025°17'510.1
2017-Sep-20 03:30N 37°17' E 025°11'510.1
2017-Sep-20 03:00N 37°18' E 025°05'510.0
2017-Sep-20 02:30N 37°20' E 024°58'510.0
2017-Sep-20 02:00N 37°21' E 024°52'510.1
2017-Sep-20 01:30N 37°23' E 024°47'27 9.9
2017-Sep-19 22:48N 37°31' E 024°14'410.1
2017-Sep-19 22:27N 37°32' E 024°10'610.1
2017-Sep-19 21:54N 37°34' E 024°04'410.2
2017-Sep-19 21:30N 37°35' E 023°59'610.2
2017-Sep-19 20:54N 37°37' E 023°51'410.2
2017-Sep-19 20:30N 37°38' E 023°47'5 9.7
2017-Sep-19 20:00N 37°41' E 023°42'510.1
2017-Sep-19 19:30N 37°46' E 023°39'5 9.9
2017-Sep-19 19:00N 37°50' E 023°37'510.0
2017-Sep-19 18:30N 37°55' E 023°36'2 3.1
2017-Sep-19 18:00N 37°57' E 023°37'0 0.0
2017-Sep-19 17:30N 37°57' E 023°37'0 0.0
2017-Sep-19 17:00N 37°57' E 023°37'0 0.0
2017-Sep-19 16:27N 37°57' E 023°37'0 0.0
2017-Sep-19 16:00N 37°57' E 023°37'0 0.0
2017-Sep-19 15:27N 37°57' E 023°37'0 0.0
2017-Sep-19 15:00N 37°57' E 023°37'0 0.0
2017-Sep-19 14:30N 37°57' E 023°37'0 0.0
2017-Sep-19 14:00N 37°57' E 023°37'0 0.0
2017-Sep-19 13:30N 37°57' E 023°37'0 0.0
2017-Sep-19 13:00N 37°57' E 023°37'0 0.0
2017-Sep-19 12:30N 37°57' E 023°37'0 0.0
2017-Sep-19 12:00N 37°57' E 023°37'0 0.0
2017-Sep-19 11:30N 37°57' E 023°37'0 0.0
2017-Sep-19 11:00N 37°57' E 023°37'0 0.0
2017-Sep-19 10:30N 37°57' E 023°37'0 0.0
2017-Sep-19 10:00N 37°57' E 023°37'0 0.0
2017-Sep-19 09:28N 37°57' E 023°37'0 0.0
2017-Sep-19 08:58N 37°57' E 023°37'0 0.0
2017-Sep-19 08:28N 37°57' E 023°37'0 0.0
2017-Sep-19 07:58N 37°57' E 023°37'0 0.0
2017-Sep-19 07:28N 37°57' E 023°37'0 0.0
2017-Sep-19 06:58N 37°57' E 023°37'0 0.0
2017-Sep-19 06:28N 37°57' E 023°37'0 0.0
2017-Sep-19 05:58N 37°57' E 023°37'0 0.0
2017-Sep-19 05:28N 37°57' E 023°37'0 0.0
2017-Sep-19 04:58N 37°57' E 023°37'0 0.0
2017-Sep-19 04:28N 37°57' E 023°37'0 0.0
2017-Sep-19 03:58N 37°57' E 023°37'0 0.0
2017-Sep-19 03:28N 37°57' E 023°37'0 0.0
2017-Sep-19 02:58N 37°57' E 023°37'0 0.0
2017-Sep-19 02:28N 37°57' E 023°37'0 0.0
2017-Sep-19 01:58N 37°57' E 023°37'0 0.0
2017-Sep-19 01:28N 37°57' E 023°37'0 0.0
2017-Sep-19 00:58N 37°57' E 023°37'0 0.0
2017-Sep-19 00:25N 37°57' E 023°37'0 0.0
2017-Sep-18 23:58N 37°57' E 023°37'0 0.0
2017-Sep-18 23:28N 37°57' E 023°37'0 0.0
2017-Sep-18 22:58N 37°57' E 023°37'0 0.0
2017-Sep-18 22:28N 37°57' E 023°37'0 0.0
2017-Sep-18 21:58N 37°57' E 023°37'0 0.0
2017-Sep-18 21:28N 37°57' E 023°37'0 0.0
2017-Sep-18 20:58N 37°57' E 023°37'0 0.0
2017-Sep-18 20:28N 37°57' E 023°37'0 0.0
2017-Sep-18 19:58N 37°57' E 023°37'0 0.0
2017-Sep-18 19:28N 37°57' E 023°37'0 0.0
2017-Sep-18 18:58N 37°57' E 023°37'0 0.0
2017-Sep-18 18:28N 37°57' E 023°37'0 0.0
2017-Sep-18 17:58N 37°57' E 023°37'0 0.0
2017-Sep-18 17:28N 37°57' E 023°37'0 0.0
2017-Sep-18 16:58N 37°57' E 023°37'0 0.0
2017-Sep-18 16:28N 37°57' E 023°37'0 0.0
2017-Sep-18 15:58N 37°57' E 023°37'0 0.0
2017-Sep-18 15:25N 37°57' E 023°37'0 0.0
2017-Sep-18 14:58N 37°57' E 023°37'0 0.0
2017-Sep-18 14:28N 37°57' E 023°37'0 0.0
2017-Sep-18 13:58N 37°57' E 023°37'0 0.0
2017-Sep-18 13:25N 37°57' E 023°37'0 0.0
2017-Sep-18 12:58N 37°57' E 023°37'0 0.0
2017-Sep-18 12:28N 37°57' E 023°37'0 0.0
2017-Sep-18 11:58N 37°57' E 023°37'0 0.0
2017-Sep-18 11:28N 37°57' E 023°37'0 0.0
2017-Sep-18 10:58N 37°57' E 023°37'0 0.0
2017-Sep-18 10:28N 37°57' E 023°37'0 0.0
2017-Sep-18 09:58N 37°57' E 023°37'0 0.0
2017-Sep-18 09:28N 37°57' E 023°37'0 0.0
2017-Sep-18 08:58N 37°57' E 023°37'0 0.0
2017-Sep-18 08:28N 37°57' E 023°37'0 0.0
2017-Sep-18 07:58N 37°57' E 023°37'0 0.0
2017-Sep-18 07:28N 37°57' E 023°37'0 0.0
2017-Sep-18 06:58N 37°57' E 023°37'0 0.0
2017-Sep-18 06:28N 37°57' E 023°37'0 0.0
2017-Sep-18 05:58N 37°57' E 023°37'0 0.0
2017-Sep-18 05:28N 37°57' E 023°37'0 0.0
2017-Sep-18 04:58N 37°57' E 023°37'0 0.0
2017-Sep-18 04:28N 37°57' E 023°37'0 0.0
2017-Sep-18 03:58N 37°57' E 023°37'0 0.0
2017-Sep-18 03:28N 37°57' E 023°37'0 0.0
2017-Sep-18 02:58N 37°57' E 023°37'0 0.0
2017-Sep-18 02:28N 37°57' E 023°37'0 0.0
2017-Sep-18 01:58N 37°57' E 023°37'0 0.0
2017-Sep-18 01:28N 37°57' E 023°37'0 0.0
2017-Sep-18 00:58N 37°57' E 023°37'0 0.0
2017-Sep-18 00:28N 37°57' E 023°37'0 0.0
2017-Sep-17 23:58N 37°57' E 023°37'0 0.0
2017-Sep-17 23:28N 37°57' E 023°37'0 0.0
2017-Sep-17 22:58N 37°57' E 023°37'0 0.0
2017-Sep-17 22:28N 37°57' E 023°37'0 0.0
2017-Sep-17 21:59N 37°57' E 023°37'0 0.0
2017-Sep-17 21:29N 37°57' E 023°37'0 0.0
2017-Sep-17 20:59N 37°57' E 023°37'0 0.0
2017-Sep-17 20:29N 37°57' E 023°37'0 0.0
2017-Sep-17 19:59N 37°57' E 023°37'0 0.0
2017-Sep-17 19:29N 37°57' E 023°37'0 0.0
2017-Sep-17 18:59N 37°57' E 023°37'0 0.0
2017-Sep-17 18:29N 37°57' E 023°37'0 0.0
2017-Sep-17 17:59N 37°57' E 023°37'0 0.0
2017-Sep-17 17:29N 37°57' E 023°37'0 0.0
2017-Sep-17 16:59N 37°57' E 023°37'0 0.0
2017-Sep-17 16:29N 37°57' E 023°37'0 0.0
2017-Sep-17 15:59N 37°57' E 023°37'0 0.0
2017-Sep-17 15:29N 37°57' E 023°37'0 0.0
2017-Sep-17 14:59N 37°57' E 023°37'0 0.0
2017-Sep-17 14:29N 37°57' E 023°37'0 0.0
2017-Sep-17 13:59N 37°57' E 023°37'0 0.0
2017-Sep-17 13:29N 37°57' E 023°37'0 0.0
2017-Sep-17 12:59N 37°57' E 023°37'0 0.0
2017-Sep-17 12:29N 37°57' E 023°37'0 0.0
2017-Sep-17 11:59N 37°57' E 023°37'0 0.0
2017-Sep-17 11:29N 37°57' E 023°37'0 0.0
2017-Sep-17 10:59N 37°57' E 023°37'0 0.0
2017-Sep-17 10:29N 37°57' E 023°37'0 0.0
2017-Sep-17 09:59N 37°57' E 023°37'0 0.0
2017-Sep-17 09:29N 37°57' E 023°37'0 0.0
2017-Sep-17 08:59N 37°57' E 023°37'0 0.0
2017-Sep-17 08:29N 37°57' E 023°37'0 0.0
2017-Sep-17 07:56N 37°57' E 023°37'0 0.0
2017-Sep-17 07:29N 37°57' E 023°37'0 0.0
2017-Sep-17 06:59N 37°57' E 023°37'0 0.0
2017-Sep-17 06:29N 37°57' E 023°37'0 0.0
2017-Sep-17 05:59N 37°57' E 023°37'0 0.0
2017-Sep-17 05:29N 37°57' E 023°37'0 0.0
2017-Sep-17 04:59N 37°57' E 023°37'0 0.0
2017-Sep-17 04:29N 37°57' E 023°37'0 0.0
2017-Sep-17 03:59N 37°57' E 023°37'0 0.0
2017-Sep-17 03:29N 37°57' E 023°37'0 0.0
2017-Sep-17 02:59N 37°57' E 023°37'0 0.0
2017-Sep-17 02:29N 37°57' E 023°37'0 0.0
2017-Sep-17 01:59N 37°57' E 023°37'0 0.0
2017-Sep-17 01:29N 37°57' E 023°37'0 0.0
2017-Sep-17 00:59N 37°57' E 023°37'0 0.0
2017-Sep-17 00:29N 37°57' E 023°37'0 0.0
2017-Sep-16 23:59N 37°57' E 023°37'0 0.0
2017-Sep-16 23:26N 37°57' E 023°37'0 0.0
2017-Sep-16 22:59N 37°57' E 023°37'0 0.0
2017-Sep-16 22:29N 37°57' E 023°37'0 0.0
2017-Sep-16 21:59N 37°57' E 023°37'0 0.0
2017-Sep-16 21:29N 37°57' E 023°37'0 0.0
2017-Sep-16 20:59N 37°57' E 023°37'0 0.0
2017-Sep-16 20:29N 37°57' E 023°37'0 0.0
2017-Sep-16 19:59N 37°57' E 023°37'0 0.0
2017-Sep-16 19:29N 37°57' E 023°37'0 0.0
2017-Sep-16 18:59N 37°57' E 023°37'0 0.0
2017-Sep-16 18:29N 37°57' E 023°37'0 0.0
2017-Sep-16 17:59N 37°57' E 023°37'0 0.0
2017-Sep-16 17:29N 37°57' E 023°37'0 0.0
2017-Sep-16 16:59N 37°57' E 023°37'0 0.0
2017-Sep-16 16:29N 37°57' E 023°37'0 0.0
2017-Sep-16 15:59N 37°57' E 023°37'0 0.0
2017-Sep-16 15:29N 37°57' E 023°37'0 0.0
2017-Sep-16 14:59N 37°57' E 023°37'0 0.0
2017-Sep-16 14:29N 37°57' E 023°37'0 0.0
2017-Sep-16 13:59N 37°57' E 023°37'0 0.0
2017-Sep-16 13:29N 37°57' E 023°37'0 0.0
2017-Sep-16 12:59N 37°57' E 023°37'0 0.0
2017-Sep-16 12:29N 37°57' E 023°37'0 0.0
2017-Sep-16 11:59N 37°57' E 023°37'0 0.0
2017-Sep-16 11:29N 37°57' E 023°37'0 0.0
2017-Sep-16 10:59N 37°57' E 023°37'0 0.0
2017-Sep-16 10:29N 37°57' E 023°37'0 0.0
2017-Sep-16 09:59N 37°57' E 023°37'0 0.0
2017-Sep-16 09:29N 37°57' E 023°37'0 0.0
2017-Sep-16 08:59N 37°57' E 023°37'0 0.0
2017-Sep-16 08:29N 37°57' E 023°37'0 0.0
2017-Sep-16 07:59N 37°57' E 023°37'0 0.0
2017-Sep-16 07:29N 37°57' E 023°37'0 0.0
2017-Sep-16 06:59N 37°57' E 023°37'0 0.0
2017-Sep-16 06:29N 37°57' E 023°37'0 0.0
2017-Sep-16 05:56N 37°57' E 023°37'0 0.0
2017-Sep-16 05:26N 37°57' E 023°37'0 0.0
2017-Sep-16 04:59N 37°57' E 023°37'0 0.0
2017-Sep-16 04:29N 37°57' E 023°37'0 0.0
2017-Sep-16 03:53N 37°57' E 023°37'0 0.0
2017-Sep-16 03:29N 37°57' E 023°37'0 0.0
2017-Sep-16 02:59N 37°57' E 023°37'0 0.0
2017-Sep-16 02:29N 37°57' E 023°37'0 0.0
2017-Sep-16 01:59N 37°57' E 023°37'0 0.0
2017-Sep-16 01:29N 37°57' E 023°37'0 0.0
2017-Sep-16 00:59N 37°57' E 023°37'0 0.0
2017-Sep-16 00:29N 37°57' E 023°37'0 0.0
2017-Sep-15 23:59N 37°57' E 023°37'0 0.0
2017-Sep-15 23:29N 37°57' E 023°37'0 0.0
2017-Sep-15 22:59N 37°57' E 023°37'0 0.0
2017-Sep-15 22:29N 37°57' E 023°37'0 0.0
2017-Sep-15 21:59N 37°57' E 023°37'0 0.0
2017-Sep-15 21:26N 37°57' E 023°37'0 0.0
2017-Sep-15 20:59N 37°57' E 023°37'0 0.0
2017-Sep-15 20:26N 37°57' E 023°37'0 0.0
2017-Sep-15 19:59N 37°57' E 023°37'0 0.0
2017-Sep-15 19:29N 37°57' E 023°37'0 0.0
2017-Sep-15 18:59N 37°57' E 023°37'0 0.0
2017-Sep-15 18:29N 37°57' E 023°37'0 0.0
2017-Sep-15 17:59N 37°57' E 023°37'0 0.0
2017-Sep-15 17:29N 37°57' E 023°37'0 0.0
2017-Sep-15 16:59N 37°57' E 023°37'0 0.0
2017-Sep-15 16:29N 37°57' E 023°37'0 0.0
2017-Sep-15 15:59N 37°57' E 023°37'0 0.0
2017-Sep-15 15:29N 37°57' E 023°37'0 0.0
2017-Sep-15 14:59N 37°57' E 023°37'0 0.0
2017-Sep-15 14:29N 37°57' E 023°37'0 0.0
2017-Sep-15 13:59N 37°57' E 023°37'0 0.0
2017-Sep-15 13:29N 37°57' E 023°37'0 0.0
2017-Sep-15 12:59N 37°57' E 023°37'0 0.0
2017-Sep-15 12:29N 37°57' E 023°37'0 0.0
2017-Sep-15 11:59N 37°57' E 023°37'0 0.0
2017-Sep-15 11:29N 37°57' E 023°37'0 0.0
2017-Sep-15 10:59N 37°57' E 023°37'0 0.0
2017-Sep-15 10:29N 37°57' E 023°37'0 0.0
2017-Sep-15 09:59N 37°57' E 023°37'0 0.0
2017-Sep-15 09:29N 37°57' E 023°37'0 0.0
2017-Sep-15 08:59N 37°57' E 023°37'0 0.0
2017-Sep-15 08:29N 37°57' E 023°37'0 0.0
2017-Sep-15 07:59N 37°57' E 023°37'0 0.0
2017-Sep-15 07:29N 37°57' E 023°37'0 0.0
2017-Sep-15 06:59N 37°57' E 023°37'0 0.0
2017-Sep-15 06:29N 37°57' E 023°37'0 0.0
2017-Sep-15 05:59N 37°57' E 023°37'0 0.0
2017-Sep-15 05:29N 37°57' E 023°37'1 2.1
2017-Sep-15 05:00N 37°56' E 023°36'1 1.5
2017-Sep-15 04:30N 37°55' E 023°36'1 2.1
2017-Sep-15 04:00N 37°54' E 023°37'5 9.4
2017-Sep-15 03:30N 37°50' E 023°40'511.0
2017-Sep-15 03:00N 37°45' E 023°43'611.0
2017-Sep-15 02:30N 37°40' E 023°46'510.9
2017-Sep-15 02:00N 37°39' E 023°52'611.0
2017-Sep-15 01:28N 37°38' E 023°60'611.0
2017-Sep-15 00:54N 37°38' E 024°08'1011.2
2017-Sep-15 00:00N 37°44' E 024°17'18 0.4
2017-Sep-12 21:34N 37°38' E 023°56'112.3
2017-Sep-12 21:30N 37°38' E 023°55'612.3
2017-Sep-12 21:00N 37°39' E 023°48'611.3
2017-Sep-12 20:30N 37°41' E 023°41'612.2
2017-Sep-12 20:00N 37°47' E 023°38'510.3
2017-Sep-12 19:30N 37°50' E 023°32'612.1
2017-Sep-12 19:01N 37°50' E 023°25'612.2
2017-Sep-12 18:31N 37°51' E 023°17'612.0
2017-Sep-12 18:00N 37°53' E 023°09'611.7
2017-Sep-12 17:30N 37°54' E 023°02'21 6.6
2017-Sep-12 14:21N 38°05' E 022°40'411.9
2017-Sep-12 14:00N 38°07' E 022°36'612.3
2017-Sep-12 13:28N 38°10' E 022°28'  

Dump ship's entire track history